Decoded Metar for OERF (RAFHA in SAUDI ARABIA) (IATA:RAH) | Meteo·Mobile Aviation Weather
aviador You're here:

OERF Decoded Metar

RAFHA in SAUDI ARABIA
Report Time2018-10-23 23:00:00
UTC Time2018-10-23 23:38:44
Flight Rules vfr VFR
Wind130° at 04 kt
W.Decomp.*RWY 11: 3.8 kt HW 1.2 kt RCW
W.Rank130° ranks 12
Current wind is below 130° avg. (8.2)
Visibility9999 m
Phenomena:N/A
Clouds:N/A
Expected CloudBase > 2,400 ft AGL from Temp-Dew spread
CeilingNone
Temp20°C (ISA +8)
Dew Point14°C (69% RH)
AAT19.9°C
QNH1016 hPa
Density Alt2,510 ft
Elevation1,467 ft
Report Wrong Elevation
Raw Report
METAR OERF 232300Z 13004KT CAVOK 20/14 Q1016=

Extra information for OERF:More info

Metar Taf Metar & Taf Last 4 Metars F.Rules Stats Wind Profile Meteogram Temp Stats Airport Information Weather charts Add Link Nearby VenuesMetar ALERT Operation Metar Decoded Social comments